IN72 weather

Mayer Airport
Union Dale, Indiana, United States

Public forecast

Using degrees Fahrenheit for public forecast. Weather courtesy of forecast.io.

METAR (pilot weather report)

Closest report is Huntington Municipal Airport, 10.5 nm (19.4 km) WNW. Retrieved 2019/04/19 15:35 UTC (20 minutes ago):

KHHG 191535Z AUTO 01012G19KT 10SM OVC012 06/05 A2970 RMK AO2 T00550047

TAF (pilot weather forecast)

Forecast is more than 6 hours old.

Closest forecast is Fort Wayne International Airport, 11.8 nm (21.8 km) N. Retrieved 2019/04/19 06:24 UTC (10 hours ago):

TAF KFWA 190521Z 1906/2006 35013G22KT 6SM -RA BR SCT008 OVC013 TEMPO 1909/1913 4SM RA BR OVC008 FM191400 01016G24KT 6SM -RA BR OVC010